Time;durP1;ratioP1;P1;durP2;ratioP2;P2;SDS_P1;SDS_P2;PMS_P1;PMS_P2;Temp;Humidity;BMP_temperature;BMP_pressure;BME280_temperature;BME280_humidity;BME280_pressure;Samples;Min_cycle;Max_cycle;Signal;HPM_P1;HPM_P2
2021/06/27 00:01:40;;;;;;;4.22;2.90;;;24.00;67.60;;;;;;5010019;28;20060;-60
2021/06/27 00:04:05;;;;;;;3.72;2.95;;;23.90;67.80;;;;;;5030772;28;20041;-60
2021/06/27 00:06:31;;;;;;;3.35;3.05;;;23.90;67.80;;;;;;5016381;28;20030;-60
2021/06/27 00:08:56;;;;;;;3.15;2.85;;;23.90;68.00;;;;;;5027296;28;20033;-60
2021/06/27 00:11:24;;;;;;;3.47;2.78;;;23.90;68.00;;;;;;5034149;28;20101;-60
2021/06/27 00:13:50;;;;;;;3.28;2.97;;;23.80;68.10;;;;;;5018239;28;20030;-60
2021/06/27 00:16:15;;;;;;;3.25;2.85;;;23.80;68.20;;;;;;5003942;28;20552;-59
2021/06/27 00:18:41;;;;;;;3.20;2.72;;;23.70;68.30;;;;;;5014244;28;20034;-59
2021/06/27 00:21:10;;;;;;;3.65;2.92;;;23.70;68.30;;;;;;5009434;28;20109;-61
2021/06/27 00:23:38;;;;;;;3.45;2.92;;;23.70;68.60;;;;;;5011079;28;20029;-59
2021/06/27 00:26:05;;;;;;;2.88;2.67;;;23.60;68.60;;;;;;5004668;28;20030;-59
2021/06/27 00:28:31;;;;;;;3.45;2.95;;;23.60;68.70;;;;;;5025238;28;20022;-60
2021/06/27 00:30:57;;;;;;;3.78;3.08;;;23.60;68.70;;;;;;5024289;28;20500;-59
2021/06/27 00:33:23;;;;;;;4.47;2.92;;;23.60;68.90;;;;;;5026786;28;20040;-60
2021/06/27 00:35:48;;;;;;;5.40;2.80;;;23.50;69.00;;;;;;5011504;28;20491;-59
2021/06/27 00:38:14;;;;;;;6.68;3.20;;;23.50;69.10;;;;;;5023081;28;20046;-60
2021/06/27 00:40:39;;;;;;;4.82;3.03;;;23.40;69.00;;;;;;4999083;28;20021;-60
2021/06/27 00:43:05;;;;;;;3.35;2.97;;;23.50;69.10;;;;;;5011415;28;20026;-60
2021/06/27 00:45:31;;;;;;;3.65;2.72;;;23.40;69.20;;;;;;4993884;28;20474;-59
2021/06/27 00:48:00;;;;;;;3.30;3.00;;;23.40;69.30;;;;;;5012742;28;20499;-58
2021/06/27 00:50:31;;;;;;;3.40;3.10;;;23.30;69.50;;;;;;5004070;28;20034;-59
2021/06/27 00:52:56;;;;;;;3.17;2.88;;;23.40;69.60;;;;;;4993363;28;20379;-60
2021/06/27 00:55:22;;;;;;;3.38;3.08;;;23.30;69.60;;;;;;5011753;28;20028;-59
2021/06/27 00:57:49;;;;;;;4.72;3.25;;;23.30;69.80;;;;;;5019830;28;20382;-60
2021/06/27 01:00:16;;;;;;;4.20;2.90;;;23.20;69.80;;;;;;5028278;28;20033;-60
2021/06/27 01:02:42;;;;;;;3.05;2.75;;;23.20;69.90;;;;;;5037319;28;20029;-60
2021/06/27 01:05:09;;;;;;;4.10;3.38;;;23.20;69.90;;;;;;5027429;28;20088;-60
2021/06/27 01:07:35;;;;;;;3.20;2.90;;;23.20;70.10;;;;;;5010420;28;20088;-60
2021/06/27 01:10:00;;;;;;;3.50;2.80;;;23.10;70.10;;;;;;5038221;28;20034;-60
2021/06/27 01:12:26;;;;;;;3.35;3.05;;;23.10;70.20;;;;;;4992548;28;20243;-60
2021/06/27 01:14:52;;;;;;;3.72;3.28;;;23.10;70.30;;;;;;5037399;28;20525;-59
2021/06/27 01:17:18;;;;;;;3.75;2.88;;;23.00;70.40;;;;;;5009218;28;20071;-60
2021/06/27 01:19:43;;;;;;;3.17;2.85;;;23.00;70.40;;;;;;5011027;28;20060;-60
2021/06/27 01:22:09;;;;;;;3.92;3.15;;;23.00;70.50;;;;;;5001889;28;20088;-60
2021/06/27 01:24:34;;;;;;;3.35;3.05;;;22.90;70.50;;;;;;5017220;28;20549;-60
2021/06/27 01:27:00;;;;;;;3.47;3.17;;;23.00;70.70;;;;;;5010677;28;20050;-59
2021/06/27 01:29:25;;;;;;;4.43;3.13;;;22.90;70.80;;;;;;5011339;28;20085;-60
2021/06/27 01:31:51;;;;;;;3.80;3.40;;;22.90;70.70;;;;;;5011705;28;20038;-60
2021/06/27 01:34:17;;;;;;;4.53;2.92;;;22.90;70.80;;;;;;5006733;28;20108;-60
2021/06/27 01:36:42;;;;;;;4.53;3.30;;;22.90;71.60;;;;;;5004856;28;20034;-59
2021/06/27 01:39:08;;;;;;;3.50;3.20;;;22.80;70.90;;;;;;5006231;28;20030;-60
2021/06/27 01:41:33;;;;;;;3.45;3.15;;;22.80;71.00;;;;;;5022380;28;20613;-59
2021/06/27 01:43:59;;;;;;;4.50;3.03;;;22.80;71.00;;;;;;5024456;28;20034;-60
2021/06/27 01:46:24;;;;;;;4.97;3.03;;;22.80;71.10;;;;;;5007882;28;20410;-60
2021/06/27 01:48:50;;;;;;;3.17;2.88;;;22.80;71.20;;;;;;5023627;28;20045;-60
2021/06/27 01:51:15;;;;;;;4.53;3.22;;;22.70;71.90;;;;;;5004068;28;20081;-60
2021/06/27 01:53:41;;;;;;;3.10;2.80;;;22.70;71.30;;;;;;5024329;28;20061;-60
2021/06/27 01:56:07;;;;;;;3.42;2.75;;;22.70;71.40;;;;;;4988976;28;20150;-60
2021/06/27 01:58:45;;;;;;;4.10;3.05;;;22.70;71.40;;;;;;5001646;28;20044;-60
2021/06/27 02:01:18;;;;;;;3.78;3.15;;;22.70;71.60;;;;;;5018432;28;20105;-59
2021/06/27 02:03:44;;;;;;;4.13;2.70;;;22.60;71.80;;;;;;5021279;28;20025;-60
2021/06/27 02:06:09;;;;;;;4.60;3.10;;;22.60;71.80;;;;;;5014953;28;20037;-60
2021/06/27 02:08:37;;;;;;;3.35;2.90;;;22.60;71.80;;;;;;5006616;28;20034;-60
2021/06/27 02:11:03;;;;;;;2.70;2.50;;;22.60;71.80;;;;;;5003820;28;20049;-59
2021/06/27 02:13:29;;;;;;;5.75;2.63;;;22.60;71.90;;;;;;5011953;28;20021;-60
2021/06/27 02:15:55;;;;;;;4.70;3.10;;;22.50;71.90;;;;;;5007557;28;20040;-59
2021/06/27 02:18:38;;;;;;;3.88;2.85;;;22.50;72.00;;;;;;5008999;28;20043;-60
2021/06/27 02:21:06;;;;;;;4.75;3.28;;;22.50;72.10;;;;;;5006742;28;20393;-59
2021/06/27 02:23:32;;;;;;;3.75;3.15;;;22.50;72.20;;;;;;5003604;28;20041;-59
2021/06/27 02:25:57;;;;;;;3.08;2.78;;;22.50;72.20;;;;;;5023324;28;20278;-60
2021/06/27 02:28:23;;;;;;;2.95;2.65;;;22.40;72.30;;;;;;5022847;28;20029;-60
2021/06/27 02:30:49;;;;;;;3.22;2.88;;;22.40;72.30;;;;;;5023685;28;20034;-59
2021/06/27 02:33:14;;;;;;;2.95;2.65;;;22.40;72.40;;;;;;5005432;28;20033;-59
2021/06/27 02:35:40;;;;;;;3.70;3.08;;;22.30;72.40;;;;;;5024093;28;20387;-60
2021/06/27 02:38:06;;;;;;;3.25;2.95;;;22.30;72.50;;;;;;5008528;28;20057;-59
2021/06/27 02:40:31;;;;;;;4.35;3.33;;;22.30;72.50;;;;;;5024986;28;20053;-59
2021/06/27 02:42:57;;;;;;;3.90;3.42;;;22.30;72.60;;;;;;5011452;28;20046;-59
2021/06/27 02:45:22;;;;;;;4.28;3.42;;;22.30;72.50;;;;;;5012367;28;20065;-60
2021/06/27 02:47:48;;;;;;;6.20;3.10;;;22.30;72.60;;;;;;5020399;28;20038;-59
2021/06/27 02:50:14;;;;;;;3.35;3.00;;;22.30;72.70;;;;;;5023983;28;20536;-59
2021/06/27 02:52:40;;;;;;;2.92;2.72;;;22.30;72.70;;;;;;4997227;28;20033;-60
2021/06/27 02:55:06;;;;;;;3.78;3.33;;;22.20;72.70;;;;;;5006366;28;20070;-60
2021/06/27 02:57:32;;;;;;;4.18;3.30;;;22.20;72.80;;;;;;5023459;28;20073;-60
2021/06/27 02:59:57;;;;;;;6.22;3.35;;;22.20;72.80;;;;;;5013142;28;20041;-59
2021/06/27 03:02:23;;;;;;;5.25;3.10;;;22.20;72.90;;;;;;4999350;28;20398;-60
2021/06/27 03:04:49;;;;;;;3.88;3.20;;;22.20;72.90;;;;;;5016500;28;20030;-60
2021/06/27 03:07:14;;;;;;;3.47;3.17;;;22.20;73.00;;;;;;5022641;28;20030;-60
2021/06/27 03:09:39;;;;;;;5.22;3.15;;;22.10;73.00;;;;;;5012822;28;20116;-60
2021/06/27 03:12:05;;;;;;;4.40;3.58;;;22.10;73.20;;;;;;5030365;28;20125;-60
2021/06/27 03:14:31;;;;;;;3.55;3.25;;;22.10;73.20;;;;;;5016006;28;20451;-59
2021/06/27 03:16:56;;;;;;;5.70;3.53;;;22.10;73.20;;;;;;5015635;28;20026;-60
2021/06/27 03:19:22;;;;;;;4.75;3.33;;;22.10;73.30;;;;;;5032113;28;20053;-59
2021/06/27 03:21:47;;;;;;;4.35;3.17;;;22.10;73.40;;;;;;5015470;28;20097;-59
2021/06/27 03:24:13;;;;;;;5.00;3.83;;;22.10;73.50;;;;;;4997503;28;20081;-60
2021/06/27 03:26:39;;;;;;;5.10;3.45;;;22.10;73.50;;;;;;4997602;28;20426;-60
2021/06/27 03:29:06;;;;;;;4.72;3.70;;;22.10;73.60;;;;;;5028449;28;20060;-60
2021/06/27 03:31:32;;;;;;;4.78;3.28;;;22.10;73.70;;;;;;5014008;28;20021;-60
2021/06/27 03:33:57;;;;;;;4.60;3.30;;;22.00;73.60;;;;;;5033026;28;20309;-59
2021/06/27 03:36:23;;;;;;;5.57;3.80;;;22.00;73.70;;;;;;5014163;28;20113;-60
2021/06/27 03:41:21;;;;;;;6.05;3.42;;;22.00;73.80;;;;;;5012701;28;20030;-61
2021/06/27 03:43:47;;;;;;;3.95;3.30;;;22.00;73.90;;;;;;5015347;28;20014;-59
2021/06/27 03:46:13;;;;;;;3.40;3.10;;;22.00;74.00;;;;;;5009632;28;20109;-60
2021/06/27 03:48:39;;;;;;;4.72;3.30;;;22.00;74.00;;;;;;5005654;28;20018;-60
2021/06/27 03:51:04;;;;;;;3.50;3.13;;;22.00;74.10;;;;;;5014353;28;20462;-60
2021/06/27 03:53:30;;;;;;;4.65;3.25;;;22.00;74.10;;;;;;5015852;28;20018;-59
2021/06/27 03:55:57;;;;;;;5.07;3.47;;;22.00;74.20;;;;;;5014990;28;20034;-59
2021/06/27 03:58:23;;;;;;;6.03;3.20;;;21.90;74.10;;;;;;5010060;28;20042;-59
2021/06/27 04:00:48;;;;;;;7.55;3.25;;;21.90;74.20;;;;;;5030665;28;20030;-59
2021/06/27 04:03:14;;;;;;;3.63;3.00;;;21.90;74.30;;;;;;5025455;28;20592;-59
2021/06/27 04:05:40;;;;;;;6.47;3.42;;;21.90;74.30;;;;;;5018599;28;20026;-60
2021/06/27 04:08:05;;;;;;;4.55;3.20;;;21.90;74.20;;;;;;5012532;28;20030;-59
2021/06/27 04:10:32;;;;;;;5.00;3.05;;;21.90;74.30;;;;;;5014325;28;20059;-59
2021/06/27 04:12:57;;;;;;;7.68;3.42;;;21.90;74.30;;;;;;5013236;28;20032;-60
2021/06/27 04:15:23;;;;;;;3.50;3.17;;;21.90;74.30;;;;;;5012864;28;20104;-60
2021/06/27 04:17:49;;;;;;;4.50;3.47;;;21.90;74.30;;;;;;5008485;28;20042;-59
2021/06/27 04:20:14;;;;;;;5.53;3.35;;;21.90;74.50;;;;;;5026478;28;20573;-59
2021/06/27 04:22:40;;;;;;;4.63;3.25;;;21.80;74.40;;;;;;5009189;28;20097;-59
2021/06/27 04:25:06;;;;;;;4.18;3.33;;;21.90;74.50;;;;;;5012165;28;20289;-59
2021/06/27 04:27:32;;;;;;;6.68;3.28;;;21.80;74.60;;;;;;5014723;28;20385;-59
2021/06/27 04:29:58;;;;;;;7.70;4.18;;;21.80;74.50;;;;;;5012533;28;20044;-59
2021/06/27 04:32:23;;;;;;;6.25;3.35;;;21.80;74.60;;;;;;5008619;28;20030;-60
2021/06/27 04:34:49;;;;;;;7.32;3.20;;;21.80;74.60;;;;;;5024654;28;20045;-59
2021/06/27 04:37:14;;;;;;;5.72;3.38;;;21.80;74.60;;;;;;4992910;28;20038;-59
2021/06/27 04:39:40;;;;;;;4.88;3.30;;;21.80;74.60;;;;;;5026980;28;20502;-59
2021/06/27 04:42:05;;;;;;;8.10;3.72;;;21.80;74.60;;;;;;4993582;28;20527;-60
2021/06/27 04:44:31;;;;;;;6.60;4.05;;;21.80;74.70;;;;;;5009476;28;20057;-59
2021/06/27 04:46:56;;;;;;;7.50;3.60;;;21.80;74.70;;;;;;5009063;28;20018;-59
2021/06/27 04:49:22;;;;;;;6.53;3.53;;;21.80;74.80;;;;;;4993652;28;20034;-59
2021/06/27 04:51:47;;;;;;;6.47;3.40;;;21.80;74.80;;;;;;4991428;28;20046;-60
2021/06/27 04:54:13;;;;;;;8.65;3.28;;;21.80;74.90;;;;;;5035636;28;20037;-60
2021/06/27 04:56:38;;;;;;;5.20;3.67;;;21.80;75.00;;;;;;5014489;28;20038;-59
2021/06/27 04:59:04;;;;;;;6.38;3.75;;;21.80;75.00;;;;;;5024845;28;20034;-60
2021/06/27 05:01:30;;;;;;;4.25;3.25;;;21.80;75.10;;;;;;5010483;28;20392;-60
2021/06/27 05:03:56;;;;;;;9.35;3.95;;;21.70;75.10;;;;;;4984968;28;20061;-60
2021/06/27 05:06:21;;;;;;;7.20;3.40;;;21.70;75.20;;;;;;5000442;28;20474;-60
2021/06/27 05:08:47;;;;;;;7.35;3.97;;;21.70;75.30;;;;;;5010498;28;20117;-60
2021/06/27 05:11:12;;;;;;;7.95;3.53;;;21.70;75.50;;;;;;5015627;28;20058;-60
2021/06/27 05:13:38;;;;;;;5.05;3.70;;;21.70;75.40;;;;;;4998541;28;20537;-59
2021/06/27 05:16:04;;;;;;;9.27;3.70;;;21.70;75.50;;;;;;5025507;28;20041;-59
2021/06/27 05:18:29;;;;;;;9.07;3.92;;;21.70;75.50;;;;;;5028627;28;20140;-60
2021/06/27 05:20:54;;;;;;;6.18;3.42;;;21.70;75.40;;;;;;5016193;28;20181;-59
2021/06/27 05:23:20;;;;;;;8.68;3.67;;;21.70;75.40;;;;;;5029241;28;20083;-59
2021/06/27 05:25:45;;;;;;;9.48;4.18;;;21.70;75.30;;;;;;5011937;28;20036;-59
2021/06/27 05:28:11;;;;;;;6.47;3.95;;;21.70;75.40;;;;;;5012364;28;20429;-60
2021/06/27 05:30:37;;;;;;;9.23;4.05;;;21.70;75.50;;;;;;5009645;28;20022;-59
2021/06/27 05:33:03;;;;;;;8.10;4.15;;;21.70;75.50;;;;;;5010227;28;20034;-60
2021/06/27 05:35:28;;;;;;;8.88;4.20;;;21.70;75.50;;;;;;4993518;28;20057;-59
2021/06/27 05:37:54;;;;;;;13.25;4.10;;;21.70;75.60;;;;;;5008957;28;20030;-60
2021/06/27 05:40:20;;;;;;;11.27;3.80;;;21.70;75.60;;;;;;5010256;28;20069;-59
2021/06/27 05:42:46;;;;;;;7.78;4.13;;;21.70;75.60;;;;;;5009171;28;20022;-60
2021/06/27 05:45:12;;;;;;;8.30;3.42;;;21.70;75.50;;;;;;5008804;28;20390;-59
2021/06/27 05:47:37;;;;;;;5.40;3.42;;;21.70;75.60;;;;;;5009975;28;20026;-59
2021/06/27 05:50:03;;;;;;;10.48;4.15;;;21.70;75.90;;;;;;4992198;28;20018;-59
2021/06/27 05:52:29;;;;;;;9.73;3.72;;;21.70;76.00;;;;;;5023325;28;20389;-60
2021/06/27 05:54:54;;;;;;;13.68;3.83;;;21.80;76.30;;;;;;5024827;28;20025;-59
2021/06/27 05:57:22;;;;;;;11.50;3.75;;;21.70;76.40;;;;;;5008807;28;20048;-59
2021/06/27 05:59:48;;;;;;;7.82;3.33;;;21.80;76.90;;;;;;5005405;28;20034;-59
2021/06/27 06:02:13;;;;;;;12.55;4.03;;;21.70;76.80;;;;;;5007940;28;20112;-59
2021/06/27 06:04:39;;;;;;;9.40;4.25;;;21.70;77.00;;;;;;5006986;28;20443;-60
2021/06/27 06:07:04;;;;;;;16.15;4.57;;;21.70;77.20;;;;;;5020444;28;20038;-60
2021/06/27 06:09:30;;;;;;;16.17;4.40;;;21.70;77.10;;;;;;5010892;28;20048;-60
2021/06/27 06:11:55;;;;;;;8.98;4.10;;;21.70;77.50;;;;;;5024361;28;20453;-59
2021/06/27 06:14:21;;;;;;;9.35;4.35;;;21.70;77.60;;;;;;5024369;28;20289;-60
2021/06/27 06:16:47;;;;;;;12.27;4.03;;;21.70;77.90;;;;;;5009703;28;20269;-60
2021/06/27 06:19:14;;;;;;;10.65;4.28;;;21.70;77.90;;;;;;5006781;28;20062;-60
2021/06/27 06:21:40;;;;;;;8.40;3.60;;;21.70;78.50;;;;;;5019772;28;20034;-60
2021/06/27 06:24:05;;;;;;;8.50;4.00;;;21.70;78.10;;;;;;5019960;28;20026;-59
2021/06/27 06:26:31;;;;;;;7.47;4.18;;;21.70;77.80;;;;;;5008576;28;20620;-60
2021/06/27 06:28:57;;;;;;;6.68;4.32;;;21.70;77.90;;;;;;5022424;28;20038;-59
2021/06/27 06:31:22;;;;;;;15.55;4.40;;;21.70;77.90;;;;;;4998316;28;20033;-60
2021/06/27 06:33:48;;;;;;;9.65;4.00;;;21.70;78.10;;;;;;5001466;28;20050;-59
2021/06/27 06:36:13;;;;;;;10.63;4.43;;;21.70;77.90;;;;;;5008170;28;20030;-59
2021/06/27 06:38:39;;;;;;;10.05;4.50;;;21.70;78.00;;;;;;5007512;28;20034;-59
2021/06/27 06:41:04;;;;;;;12.07;4.30;;;21.70;77.90;;;;;;5010047;28;20022;-60
2021/06/27 06:43:30;;;;;;;10.77;4.40;;;21.70;78.00;;;;;;5004118;28;20029;-59
2021/06/27 06:45:55;;;;;;;9.27;4.20;;;21.70;78.70;;;;;;5007421;28;20032;-62
2021/06/27 06:48:21;;;;;;;9.35;4.53;;;21.70;78.40;;;;;;5006584;28;20096;-60
2021/06/27 06:50:46;;;;;;;14.07;4.38;;;21.70;78.10;;;;;;5020904;28;20117;-59
2021/06/27 06:53:12;;;;;;;8.48;4.43;;;21.70;78.00;;;;;;5006925;28;20034;-59
2021/06/27 06:55:37;;;;;;;14.75;4.72;;;21.70;78.00;;;;;;5015639;28;20108;-59
2021/06/27 06:58:04;;;;;;;12.07;4.70;;;21.70;77.80;;;;;;5004556;28;20030;-60
2021/06/27 07:00:29;;;;;;;10.63;4.55;;;21.70;77.60;;;;;;5005263;28;20034;-60
2021/06/27 07:02:55;;;;;;;15.27;4.78;;;21.70;77.60;;;;;;5022989;28;20049;-60
2021/06/27 07:05:21;;;;;;;9.10;4.40;;;21.70;77.50;;;;;;5015183;28;20034;-59
2021/06/27 07:07:47;;;;;;;7.55;4.63;;;21.70;77.70;;;;;;4986503;28;20398;-61
2021/06/27 07:10:13;;;;;;;5.95;4.68;;;21.70;78.20;;;;;;5022932;28;20050;-60
2021/06/27 07:12:39;;;;;;;14.27;5.57;;;21.70;79.00;;;;;;5005760;28;20062;-59
2021/06/27 07:15:05;;;;;;;7.32;4.72;;;21.70;79.20;;;;;;5008041;28;20057;-59
2021/06/27 07:17:31;;;;;;;9.18;4.53;;;21.70;79.20;;;;;;4996966;28;20030;-60
2021/06/27 07:19:56;;;;;;;11.13;4.95;;;21.70;79.20;;;;;;5022538;28;20042;-60
2021/06/27 07:22:22;;;;;;;9.57;4.93;;;21.70;79.10;;;;;;5007670;28;20390;-59
2021/06/27 07:24:47;;;;;;;9.52;4.43;;;21.70;79.30;;;;;;5008976;28;20061;-59
2021/06/27 07:27:13;;;;;;;7.32;4.25;;;21.70;79.70;;;;;;4971297;28;20033;-59
2021/06/27 07:29:38;;;;;;;13.98;5.15;;;21.70;80.00;;;;;;5013318;28;20040;-60
2021/06/27 07:32:06;;;;;;;7.93;4.60;;;21.70;79.80;;;;;;4994265;28;20033;-60
2021/06/27 07:34:31;;;;;;;11.43;5.22;;;21.70;79.50;;;;;;5011208;28;20032;-60
2021/06/27 07:36:57;;;;;;;8.27;5.18;;;21.70;79.90;;;;;;4999527;28;20043;-60
2021/06/27 07:39:23;;;;;;;18.35;5.65;;;21.60;80.10;;;;;;5011715;28;20030;-60
2021/06/27 07:41:48;;;;;;;11.40;4.60;;;21.70;80.20;;;;;;4991445;28;20070;-59
2021/06/27 07:44:14;;;;;;;18.00;5.57;;;21.70;79.90;;;;;;5007278;28;20471;-60
2021/06/27 07:46:39;;;;;;;15.88;5.65;;;21.70;79.90;;;;;;5007843;28;20142;-59
2021/06/27 07:49:05;;;;;;;19.95;4.88;;;21.70;79.80;;;;;;5010418;28;20128;-59
2021/06/27 07:51:30;;;;;;;14.60;5.30;;;21.70;79.70;;;;;;4993857;28;20073;-60
2021/06/27 07:53:56;;;;;;;12.60;4.75;;;21.80;79.40;;;;;;5010869;28;20033;-60
2021/06/27 07:56:21;;;;;;;13.95;5.75;;;21.70;79.20;;;;;;5007656;28;20458;-59
2021/06/27 07:58:47;;;;;;;14.73;5.35;;;21.70;79.50;;;;;;5004648;28;20081;-60
2021/06/27 08:01:12;;;;;;;19.02;5.35;;;21.80;79.60;;;;;;5009508;28;20065;-59
2021/06/27 08:03:38;;;;;;;14.27;4.78;;;21.80;79.80;;;;;;5009418;28;20080;-60
2021/06/27 08:06:04;;;;;;;17.30;5.32;;;21.80;80.00;;;;;;5014926;28;20021;-59
2021/06/27 08:08:29;;;;;;;15.65;5.07;;;21.80;80.80;;;;;;5012264;28;20041;-59
2021/06/27 08:10:55;;;;;;;13.32;4.80;;;21.80;80.80;;;;;;5009769;28;20521;-60
2021/06/27 08:13:20;;;;;;;10.55;5.13;;;21.80;81.20;;;;;;4988361;28;20034;-59
2021/06/27 08:15:46;;;;;;;17.90;5.22;;;21.80;81.50;;;;;;4971304;28;20046;-60
2021/06/27 08:18:12;;;;;;;35.67;6.45;;;21.80;81.50;;;;;;4990792;28;20049;-60
2021/06/27 08:20:37;;;;;;;93.20;10.50;;;21.80;81.30;;;;;;5025608;28;20038;-60
2021/06/27 08:23:03;;;;;;;54.58;7.68;;;21.80;81.50;;;;;;5025432;28;20128;-59
2021/06/27 08:25:28;;;;;;;34.95;6.78;;;21.80;81.80;;;;;;5007647;28;20042;-59
2021/06/27 08:27:54;;;;;;;32.50;6.45;;;21.90;81.90;;;;;;5004665;28;20042;-59
2021/06/27 08:30:20;;;;;;;29.55;6.32;;;21.90;82.00;;;;;;5004568;28;20386;-60
2021/06/27 08:32:46;;;;;;;43.47;7.50;;;21.90;82.00;;;;;;5009863;28;20422;-60
2021/06/27 08:35:21;;;;;;;37.70;6.75;;;22.00;82.10;;;;;;5008539;28;20026;-61
2021/06/27 08:37:48;;;;;;;32.65;7.43;;;22.00;82.10;;;;;;4995311;28;20044;-60
2021/06/27 08:40:17;;;;;;;49.63;7.65;;;22.00;82.30;;;;;;5003599;28;20502;-60
2021/06/27 08:42:42;;;;;;;36.20;7.20;;;22.00;83.00;;;;;;4988522;28;20497;-60
2021/06/27 08:45:10;;;;;;;50.95;8.88;;;22.10;82.40;;;;;;4988165;28;20097;-59
2021/06/27 08:47:35;;;;;;;82.68;10.35;;;22.10;82.60;;;;;;4975814;28;20037;-59
2021/06/27 08:50:01;;;;;;;51.03;8.18;;;22.10;82.50;;;;;;5010600;28;20033;-60
2021/06/27 08:52:27;;;;;;;61.25;9.95;;;22.20;82.40;;;;;;5007071;28;20041;-61
2021/06/27 08:54:52;;;;;;;93.18;12.27;;;22.20;82.50;;;;;;5024473;28;20029;-59
2021/06/27 08:57:18;;;;;;;40.60;8.32;;;22.20;82.20;;;;;;5012800;28;20033;-59
2021/06/27 08:59:45;;;;;;;45.03;9.43;;;22.30;82.40;;;;;;5013355;28;20065;-61
2021/06/27 09:02:11;;;;;;;50.13;8.10;;;22.30;82.10;;;;;;4990594;28;20121;-60
2021/06/27 09:04:41;;;;;;;41.90;8.73;;;22.30;82.20;;;;;;5006401;28;21103;-60
2021/06/27 09:07:32;;;;;;;81.55;12.07;;;22.30;82.00;;;;;;4981338;28;20588;-60
2021/06/27 09:10:04;;;;;;;54.45;9.43;;;22.40;82.30;;;;;;5025826;28;20438;-60
2021/06/27 09:12:55;;;;;;;62.50;9.13;;;22.40;82.40;;;;;;4998721;28;20026;-60
2021/06/27 09:15:35;;;;;;;66.30;8.93;;;22.50;82.20;;;;;;4990662;28;20057;-60
2021/06/27 09:18:05;;;;;;;76.55;10.80;;;22.50;82.20;;;;;;5011034;28;20041;-59
2021/06/27 09:20:31;;;;;;;89.43;11.02;;;22.60;82.10;;;;;;5006673;28;20040;-60
2021/06/27 09:22:57;;;;;;;78.43;10.68;;;22.60;82.00;;;;;;5024196;28;20030;-60
2021/06/27 09:25:27;;;;;;;95.80;12.00;;;22.60;81.60;;;;;;5015673;28;20590;-59
2021/06/27 09:27:57;;;;;;;70.93;10.07;;;22.70;81.60;;;;;;5007615;28;20058;-61
2021/06/27 09:30:23;;;;;;;69.57;10.43;;;22.70;81.30;;;;;;4991149;28;20026;-59
2021/06/27 09:32:54;;;;;;;111.50;10.60;;;22.70;81.50;;;;;;5006412;28;20260;-60
2021/06/27 09:35:38;;;;;;;62.42;9.40;;;22.70;81.50;;;;;;5007357;28;20029;-59
2021/06/27 09:38:40;;;;;;;65.22;9.45;;;22.80;81.10;;;;;;5006657;28;20037;-59
2021/06/27 09:41:23;;;;;;;90.07;10.52;;;22.80;81.10;;;;;;5005600;28;20057;-60
2021/06/27 09:44:05;;;;;;;99.88;13.30;;;22.90;81.00;;;;;;4991245;28;20033;-60
2021/06/27 09:46:42;;;;;;;61.70;9.45;;;22.90;81.00;;;;;;5023994;28;20038;-59
2021/06/27 09:49:09;;;;;;;71.75;10.13;;;22.90;80.70;;;;;;5026110;28;20061;-60
2021/06/27 09:51:35;;;;;;;73.97;10.52;;;23.00;80.80;;;;;;5020215;28;20037;-60
2021/06/27 09:54:01;;;;;;;70.00;9.80;;;23.00;80.50;;;;;;5027838;28;20026;-60
2021/06/27 09:56:26;;;;;;;66.90;9.02;;;23.10;80.40;;;;;;4991366;28;20121;-60
2021/06/27 09:58:55;;;;;;;69.15;9.80;;;23.10;80.90;;;;;;4989468;28;20069;-61
2021/06/27 10:01:22;;;;;;;68.35;8.63;;;23.10;80.40;;;;;;4999020;28;20045;-61
2021/06/27 10:03:52;;;;;;;48.08;8.40;;;23.20;80.10;;;;;;5018611;28;20029;-60
2021/06/27 10:06:18;;;;;;;53.38;9.13;;;23.20;79.80;;;;;;5021622;28;20029;-60
2021/06/27 10:08:44;;;;;;;76.88;10.50;;;23.20;79.90;;;;;;5003580;28;20117;-60
2021/06/27 10:11:17;;;;;;;69.70;10.13;;;23.30;79.80;;;;;;5006834;28;20112;-60
2021/06/27 10:13:48;;;;;;;93.53;9.52;;;23.30;79.70;;;;;;5010590;28;20120;-59
2021/06/27 10:16:21;;;;;;;55.20;8.45;;;23.40;79.80;;;;;;4994378;28;20492;-60
2021/06/27 10:18:47;;;;;;;66.90;8.98;;;23.40;79.60;;;;;;5006873;28;20038;-60
2021/06/27 10:21:13;;;;;;;53.92;10.60;;;23.50;79.30;;;;;;5021268;28;20421;-60
2021/06/27 10:23:38;;;;;;;65.82;9.25;;;23.60;79.10;;;;;;5022018;28;20034;-59
2021/06/27 10:26:04;;;;;;;61.92;8.63;;;23.60;78.90;;;;;;5005544;28;20382;-59
2021/06/27 10:28:32;;;;;;;73.72;9.38;;;23.70;78.80;;;;;;4991400;28;20028;-60
2021/06/27 10:30:57;;;;;;;48.42;9.20;;;23.80;78.90;;;;;;5007052;28;20619;-60
2021/06/27 10:33:23;;;;;;;52.80;8.88;;;23.90;78.90;;;;;;5003012;28;20117;-61
2021/06/27 10:35:49;;;;;;;111.88;13.50;;;23.90;78.70;;;;;;4972736;28;20041;-59
2021/06/27 10:38:15;;;;;;;84.05;10.80;;;24.00;78.40;;;;;;4988047;28;20060;-60
2021/06/27 10:40:57;;;;;;;72.82;10.43;;;24.10;78.20;;;;;;4995328;28;20093;-59
2021/06/27 10:43:24;;;;;;;78.93;11.35;;;24.20;78.10;;;;;;5010366;28;20021;-58
2021/06/27 10:45:56;;;;;;;101.43;12.32;;;24.30;78.00;;;;;;5018021;28;20041;-59
2021/06/27 10:48:34;;;;;;;77.90;11.63;;;24.30;77.60;;;;;;5005046;28;20077;-59
2021/06/27 10:51:00;;;;;;;94.75;11.73;;;24.40;77.50;;;;;;5005162;28;20060;-59
2021/06/27 10:53:26;;;;;;;118.20;13.52;;;24.50;77.50;;;;;;5012721;28;20113;-60
2021/06/27 10:55:58;;;;;;;137.07;13.60;;;24.60;77.20;;;;;;5006744;28;20034;-58
2021/06/27 10:58:35;;;;;;;97.43;13.80;;;24.60;76.90;;;;;;5007232;28;20076;-59
2021/06/27 11:01:01;;;;;;;102.63;12.57;;;24.70;76.50;;;;;;4991013;28;20745;-59
2021/06/27 11:03:26;;;;;;;204.05;21.25;;;24.80;75.70;;;;;;4994466;28;20061;-58
2021/06/27 11:05:56;;;;;;;118.85;14.98;;;24.90;75.30;;;;;;5011009;28;20117;-59
2021/06/27 11:08:36;;;;;;;133.77;15.77;;;24.90;75.20;;;;;;5008150;28;20034;-59
2021/06/27 11:11:04;;;;;;;127.38;15.80;;;25.00;74.50;;;;;;4998730;28;20469;-60
2021/06/27 11:13:30;;;;;;;131.77;18.40;;;25.10;73.40;;;;;;5004358;28;20036;-58
2021/06/27 11:16:03;;;;;;;231.02;23.98;;;25.20;73.00;;;;;;4988930;28;20033;-59
2021/06/27 11:18:43;;;;;;;176.20;21.27;;;25.40;72.80;;;;;;5005613;28;20511;-59
2021/06/27 11:21:14;;;;;;;190.52;19.90;;;25.50;73.10;;;;;;5018358;28;20057;-59
2021/06/27 11:23:47;;;;;;;213.25;20.48;;;25.60;73.00;;;;;;5024078;28;20551;-59
2021/06/27 11:26:48;;;;;;;128.80;17.15;;;25.70;72.90;;;;;;4985410;28;20056;-60
2021/06/27 11:29:20;;;;;;;165.77;18.50;;;25.80;72.10;;;;;;4944486;28;20129;-60
2021/06/27 11:31:45;;;;;;;154.60;17.85;;;25.90;71.90;;;;;;4994571;28;20049;-59
2021/06/27 11:34:20;;;;;;;143.75;19.17;;;26.00;71.60;;;;;;5007122;28;20579;-59
2021/06/27 11:36:47;;;;;;;105.30;15.25;;;26.10;71.70;;;;;;5008867;28;20022;-59
2021/06/27 11:39:52;;;;;;;107.50;13.80;;;26.10;70.90;;;;;;4992004;28;20101;-59
2021/06/27 11:42:23;;;;;;;120.03;14.65;;;26.30;70.70;;;;;;5021384;28;20033;-60
2021/06/27 11:45:07;;;;;;;115.88;12.70;;;26.40;70.60;;;;;;4993131;28;20140;-59
2021/06/27 11:47:37;;;;;;;135.98;15.38;;;26.50;70.30;;;;;;5005540;28;20121;-59
2021/06/27 11:50:22;;;;;;;110.00;13.13;;;26.60;70.50;;;;;;5015067;28;20038;-59
2021/06/27 11:52:52;;;;;;;104.50;15.25;;;26.70;70.00;;;;;;5001544;28;20026;-60
2021/06/27 11:55:29;;;;;;;141.55;16.20;;;26.80;69.70;;;;;;5008639;28;20038;-60
2021/06/27 11:57:55;;;;;;;129.65;15.68;;;26.90;69.80;;;;;;4995208;28;20085;-60
2021/06/27 12:00:21;;;;;;;100.47;14.20;;;26.90;69.40;;;;;;4995599;28;20025;-59
2021/06/27 12:02:46;;;;;;;117.85;14.00;;;27.00;69.20;;;;;;5014246;28;20485;-60
2021/06/27 12:05:15;;;;;;;132.00;14.15;;;27.10;69.40;;;;;;5001763;28;20030;-59
2021/06/27 12:07:44;;;;;;;125.05;13.80;;;27.10;69.00;;;;;;5004187;28;20549;-60
2021/06/27 12:10:16;;;;;;;113.47;13.95;;;27.20;68.70;;;;;;5002988;28;20070;-60
2021/06/27 12:12:47;;;;;;;105.03;13.93;;;27.30;68.90;;;;;;5009534;28;20022;-60
2021/06/27 12:15:19;;;;;;;132.43;13.20;;;27.40;68.50;;;;;;5010033;28;20036;-59
2021/06/27 12:17:46;;;;;;;78.90;10.88;;;27.40;66.10;;;;;;5005343;28;20401;-60
2021/06/27 12:20:12;;;;;;;80.75;11.43;;;27.50;66.00;;;;;;4986950;28;20038;-60
2021/06/27 12:22:59;;;;;;;117.63;12.10;;;27.50;66.00;;;;;;5001025;28;20045;-59
2021/06/27 12:25:30;;;;;;;106.95;11.68;;;27.60;67.00;;;;;;4991005;28;20022;-59
2021/06/27 12:27:57;;;;;;;67.97;9.75;;;27.60;66.70;;;;;;4972514;28;20113;-60
2021/06/27 12:30:46;;;;;;;69.20;10.55;;;27.60;65.70;;;;;;4992267;28;20355;-59
2021/06/27 12:33:13;;;;;;;65.03;9.40;;;27.70;65.60;;;;;;4993075;28;20375;-60
2021/06/27 12:35:40;;;;;;;99.15;12.55;;;27.70;64.60;;;;;;5008149;28;20118;-59
2021/06/27 12:38:05;;;;;;;68.13;9.00;;;27.80;65.10;;;;;;5008691;28;20660;-60
2021/06/27 12:40:31;;;;;;;78.53;9.50;;;27.90;66.30;;;;;;4976491;28;20128;-61
2021/06/27 12:42:56;;;;;;;73.65;10.45;;;27.90;64.90;;;;;;5006866;28;20057;-59